ミラノ/マルペンサ の空港の天気 - METARとTAF

ミラノ・マルペンサ国際空港 ( LIMC / MXP ) - イタリア ミラノ
飛行場実況気象(Metar)
観測時間10/19 20:20 CEST (10/19 18:20 UTC)
風向・風速北北東 2m/s
視程10km以上
天気現象
なし
気温16℃
湿度82%
気圧1019hPa
METARLIMC 191820Z 03003KT CAVOK 16/13 Q1019 NOSIG
過去の天気等 Google飛行場航空写真 Wunderground天気予報

過去48時間のMETAR

飛行場予報(TAF)
発表時間: 10/19 19:00 CEST (10/19 17:00 UTC)
予報対象時間: 19日20時 CEST ~ 21日2時 CEST
風向・風速不定 3m/s
視程10km以上
なし
20日4時 CEST ~ 20日8時 CEST に一時的に
視程4000m
天気現象散在した霧
TAF LIMC 191700Z 1918/2024 VRB05KT CAVOK
TEMPO 2002/2006 4000 BCFG